Time;durP1;ratioP1;P1;durP2;ratioP2;P2;SDS_P1;SDS_P2;PMS_P1;PMS_P2;Temp;Humidity;BMP_temperature;BMP_pressure;BME280_temperature;BME280_humidity;BME280_pressure;Samples;Min_cycle;Max_cycle;Signal;HPM_P1;HPM_P2
2024/04/09 00:00:32;;;;;;;10.68;5.20;;;15.20;99.90;;;;;;5488485;26;20005;-87
2024/04/09 00:02:58;;;;;;;11.60;4.75;;;15.20;99.90;;;;;;5463058;26;20013;-87
2024/04/09 00:05:27;;;;;;;11.32;5.57;;;15.20;99.90;;;;;;5483184;26;20335;-86
2024/04/09 00:07:52;;;;;;;11.02;5.55;;;15.10;99.90;;;;;;5484647;26;20412;-86
2024/04/09 00:10:19;;;;;;;11.52;6.07;;;15.10;99.90;;;;;;5477956;26;20003;-87
2024/04/09 00:12:46;;;;;;;12.70;6.55;;;15.10;99.90;;;;;;5463718;26;20618;-86
2024/04/09 00:15:12;;;;;;;12.77;6.15;;;15.00;99.90;;;;;;5487436;26;20005;-87
2024/04/09 00:17:56;;;;;;;12.80;6.72;;;14.90;99.90;;;;;;5479840;26;20082;-86
2024/04/09 00:20:24;;;;;;;11.18;6.05;;;14.80;99.90;;;;;;5486390;26;19994;-87
2024/04/09 00:22:58;;;;;;;12.95;7.07;;;14.80;99.90;;;;;;5467397;26;20009;-87
2024/04/09 00:25:24;;;;;;;10.07;6.95;;;14.80;99.90;;;;;;5474936;26;19990;-86
2024/04/09 00:27:52;;;;;;;12.15;7.28;;;14.70;99.90;;;;;;5461136;26;19995;-87
2024/04/09 00:30:18;;;;;;;17.58;5.85;;;14.70;99.90;;;;;;5477790;26;20006;-87
2024/04/09 00:32:46;;;;;;;13.38;5.93;;;14.70;99.90;;;;;;5485588;26;20005;-86
2024/04/09 00:35:12;;;;;;;10.07;5.45;;;14.70;99.90;;;;;;5475829;26;20018;-87
2024/04/09 00:37:41;;;;;;;11.27;5.18;;;14.70;99.90;;;;;;5466503;26;19998;-86
2024/04/09 00:40:10;;;;;;;13.02;5.57;;;14.70;99.90;;;;;;5473478;26;20013;-86
2024/04/09 00:42:36;;;;;;;9.85;5.07;;;14.70;99.90;;;;;;5487457;26;20009;-86
2024/04/09 00:45:04;;;;;;;14.30;5.10;;;14.70;99.90;;;;;;5468104;26;20024;-84
2024/04/09 00:47:32;;;;;;;8.35;4.25;;;14.70;99.90;;;;;;5487667;26;19998;-85
2024/04/09 00:49:58;;;;;;;11.85;4.50;;;14.70;99.90;;;;;;5483921;26;20009;-84
2024/04/09 00:52:23;;;;;;;10.40;4.40;;;14.70;99.90;;;;;;5473493;26;19994;-84
2024/04/09 00:54:52;;;;;;;10.02;4.35;;;14.70;99.90;;;;;;5485101;26;20005;-84
2024/04/09 00:57:19;;;;;;;12.35;4.38;;;14.70;99.90;;;;;;5470327;26;20034;-85
2024/04/09 00:59:45;;;;;;;13.82;5.32;;;14.70;99.90;;;;;;5473659;26;20338;-85
2024/04/09 01:02:11;;;;;;;8.73;4.53;;;14.70;99.90;;;;;;5478250;26;20481;-85
2024/04/09 01:04:36;;;;;;;10.63;3.95;;;14.70;99.90;;;;;;5477876;26;20009;-84
2024/04/09 01:07:02;;;;;;;7.93;3.00;;;14.70;99.90;;;;;;5481630;26;19995;-84
2024/04/09 01:09:28;;;;;;;7.13;3.22;;;14.60;99.90;;;;;;5487156;26;20020;-85
2024/04/09 01:11:53;;;;;;;7.82;2.85;;;14.70;99.90;;;;;;5479741;26;19994;-84
2024/04/09 01:14:19;;;;;;;6.75;3.15;;;14.70;99.90;;;;;;5483492;26;20002;-85
2024/04/09 01:16:44;;;;;;;10.52;3.70;;;14.70;99.90;;;;;;5486960;26;19998;-84
2024/04/09 01:19:10;;;;;;;8.23;3.72;;;14.60;99.90;;;;;;5474530;26;20447;-85
2024/04/09 01:21:35;;;;;;;7.63;2.90;;;14.60;99.90;;;;;;5491577;26;20435;-87
2024/04/09 01:24:01;;;;;;;4.30;2.80;;;14.60;99.90;;;;;;5480525;26;20017;-85
2024/04/09 01:26:27;;;;;;;6.90;2.20;;;14.60;99.90;;;;;;5476002;26;20339;-85
2024/04/09 01:28:54;;;;;;;4.05;1.70;;;14.60;99.90;;;;;;5487583;26;20012;-85
2024/04/09 01:31:21;;;;;;;4.00;1.67;;;14.60;99.90;;;;;;5490003;26;20010;-84
2024/04/09 01:33:47;;;;;;;5.55;2.63;;;14.60;99.90;;;;;;5453255;26;19995;-86
2024/04/09 01:36:12;;;;;;;5.47;2.50;;;14.60;99.90;;;;;;5467607;26;20079;-86
2024/04/09 01:38:38;;;;;;;4.78;2.00;;;14.50;99.90;;;;;;5467565;26;19995;-86
2024/04/09 01:41:04;;;;;;;7.25;2.50;;;14.50;99.90;;;;;;5476352;26;20034;-85
2024/04/09 01:43:31;;;;;;;8.25;2.30;;;14.50;99.90;;;;;;5475913;26;20091;-85
2024/04/09 01:45:56;;;;;;;5.95;2.40;;;14.60;99.90;;;;;;5485584;26;20017;-86
2024/04/09 01:48:22;;;;;;;5.18;1.85;;;14.60;99.90;;;;;;5485497;26;19994;-85
2024/04/09 01:50:47;;;;;;;6.60;2.15;;;14.60;99.90;;;;;;5482620;26;20006;-86
2024/04/09 01:53:13;;;;;;;5.85;1.63;;;14.60;99.90;;;;;;5474473;26;20038;-85
2024/04/09 01:55:38;;;;;;;3.97;2.53;;;14.50;99.90;;;;;;5480851;26;20040;-85
2024/04/09 01:58:05;;;;;;;6.13;2.13;;;14.60;99.90;;;;;;5461636;26;20408;-85
2024/04/09 02:00:31;;;;;;;4.40;1.92;;;14.60;99.90;;;;;;5496456;26;20066;-86
2024/04/09 02:02:57;;;;;;;4.60;1.92;;;14.50;99.90;;;;;;5474349;26;20079;-84
2024/04/09 02:05:22;;;;;;;6.20;2.20;;;14.50;99.90;;;;;;5478709;26;20407;-85
2024/04/09 02:07:48;;;;;;;5.57;2.33;;;14.50;99.90;;;;;;5488310;26;20014;-85
2024/04/09 02:10:15;;;;;;;5.80;2.13;;;14.50;99.90;;;;;;5478869;26;20372;-85
2024/04/09 02:12:40;;;;;;;5.38;1.58;;;14.50;99.90;;;;;;5470153;26;20024;-85
2024/04/09 02:15:06;;;;;;;3.75;1.42;;;14.50;99.90;;;;;;5477988;26;20009;-85
2024/04/09 02:17:32;;;;;;;6.35;1.67;;;14.50;99.90;;;;;;5484047;26;20037;-86
2024/04/09 02:19:58;;;;;;;4.25;1.60;;;14.50;99.90;;;;;;5472200;26;19994;-85
2024/04/09 02:22:24;;;;;;;6.43;1.60;;;14.50;99.90;;;;;;5488347;26;20006;-85
2024/04/09 02:24:50;;;;;;;3.03;1.65;;;14.50;99.90;;;;;;5479262;26;20002;-85
2024/04/09 02:27:17;;;;;;;7.50;1.38;;;14.50;99.90;;;;;;5481672;26;20479;-87
2024/04/09 02:29:42;;;;;;;10.75;1.77;;;14.40;99.90;;;;;;5477911;26;20002;-85
2024/04/09 02:32:10;;;;;;;5.13;1.42;;;14.50;99.90;;;;;;5488086;26;19994;-85
2024/04/09 02:34:36;;;;;;;6.22;1.25;;;14.50;99.90;;;;;;5476452;26;20017;-84
2024/04/09 02:37:06;;;;;;;7.43;1.63;;;14.50;99.90;;;;;;5459356;26;20002;-85
2024/04/09 02:39:32;;;;;;;3.35;1.40;;;14.50;99.90;;;;;;5479151;26;20013;-85
2024/04/09 02:41:59;;;;;;;3.30;1.10;;;14.50;99.90;;;;;;5486397;26;20006;-85
2024/04/09 02:44:25;;;;;;;4.03;0.82;;;14.50;99.90;;;;;;5485439;26;20009;-86
2024/04/09 02:46:51;;;;;;;6.72;0.80;;;14.50;99.90;;;;;;5468143;26;20039;-84
2024/04/09 02:49:16;;;;;;;2.60;0.70;;;14.50;99.90;;;;;;5470567;26;19995;-85
2024/04/09 02:51:42;;;;;;;6.03;1.00;;;14.50;99.90;;;;;;5485151;26;20011;-85
2024/04/09 02:54:09;;;;;;;4.20;0.80;;;14.50;99.90;;;;;;5485534;26;20008;-85
2024/04/09 02:56:35;;;;;;;7.35;1.70;;;14.50;99.90;;;;;;5479954;26;20006;-85
2024/04/09 02:59:01;;;;;;;3.70;0.80;;;14.60;99.90;;;;;;5479562;26;20527;-85
2024/04/09 03:01:26;;;;;;;2.95;0.60;;;14.50;99.90;;;;;;5486342;26;20067;-85
2024/04/09 03:03:52;;;;;;;6.28;0.80;;;14.50;99.90;;;;;;5481260;26;20006;-85
2024/04/09 03:06:18;;;;;;;2.92;0.80;;;14.50;99.90;;;;;;5476638;26;20009;-85
2024/04/09 03:08:44;;;;;;;3.80;0.90;;;14.50;99.90;;;;;;5476263;26;20403;-85
2024/04/09 03:11:14;;;;;;;5.07;0.75;;;14.40;99.90;;;;;;5490595;26;19998;-85
2024/04/09 03:13:41;;;;;;;3.80;0.80;;;14.50;99.90;;;;;;5507486;26;20002;-85
2024/04/09 03:16:21;;;;;;;4.15;1.02;;;14.50;99.90;;;;;;5481536;26;19999;-86
2024/04/09 03:18:47;;;;;;;4.10;1.05;;;14.40;99.90;;;;;;5465487;26;20005;-85
2024/04/09 03:21:13;;;;;;;5.53;1.17;;;14.40;99.90;;;;;;5476313;26;20021;-85
2024/04/09 03:23:40;;;;;;;4.90;1.50;;;14.40;99.90;;;;;;5463678;26;19998;-85
2024/04/09 03:26:06;;;;;;;5.63;1.85;;;14.40;99.90;;;;;;5488715;26;20009;-85
2024/04/09 03:28:33;;;;;;;5.38;2.33;;;14.40;99.90;;;;;;5487983;26;20454;-85
2024/04/09 03:31:00;;;;;;;6.75;2.63;;;14.40;99.90;;;;;;5463915;26;20002;-85
2024/04/09 03:33:26;;;;;;;5.63;2.88;;;14.30;99.90;;;;;;5482290;26;20009;-85
2024/04/09 03:36:03;;;;;;;4.53;3.08;;;14.30;99.90;;;;;;5470634;26;19998;-84
2024/04/09 03:38:29;;;;;;;6.03;4.50;;;14.30;99.90;;;;;;5469848;26;20025;-85
2024/04/09 03:40:55;;;;;;;7.90;4.72;;;14.20;99.90;;;;;;5483392;26;20009;-84
2024/04/09 03:43:21;;;;;;;8.55;5.32;;;14.30;99.90;;;;;;5459615;26;20002;-84
2024/04/09 03:46:09;;;;;;;9.48;5.13;;;14.20;99.90;;;;;;5481010;26;19999;-85
2024/04/09 03:48:45;;;;;;;8.63;4.90;;;14.30;99.90;;;;;;5472406;26;19998;-85
2024/04/09 03:51:12;;;;;;;9.40;6.50;;;14.20;99.90;;;;;;5490596;26;20482;-85
2024/04/09 03:53:38;;;;;;;14.63;8.40;;;14.30;99.90;;;;;;5490529;26;20014;-85
2024/04/09 03:56:05;;;;;;;14.57;8.00;;;14.30;99.90;;;;;;5474051;26;20042;-85
2024/04/09 03:58:39;;;;;;;15.40;8.48;;;14.20;99.90;;;;;;5455150;26;19998;-85
2024/04/09 04:01:05;;;;;;;14.05;8.65;;;14.30;99.90;;;;;;5476401;26;20087;-85
2024/04/09 04:03:32;;;;;;;10.43;8.40;;;14.30;99.90;;;;;;5489217;26;20029;-85
2024/04/09 04:05:59;;;;;;;13.32;8.38;;;14.30;99.90;;;;;;5482834;26;20009;-85
2024/04/09 04:08:28;;;;;;;13.82;9.27;;;14.30;99.90;;;;;;5485961;26;20074;-85
2024/04/09 04:10:59;;;;;;;15.10;10.35;;;14.30;99.90;;;;;;5463787;26;20007;-84
2024/04/09 04:13:27;;;;;;;14.23;10.40;;;14.20;99.90;;;;;;5479618;26;20010;-85
2024/04/09 04:16:05;;;;;;;15.00;11.07;;;14.30;99.90;;;;;;5472730;26;20055;-85
2024/04/09 04:18:32;;;;;;;14.50;10.45;;;14.30;99.90;;;;;;5480172;26;20060;-86
2024/04/09 04:20:58;;;;;;;13.38;10.18;;;14.20;99.90;;;;;;5486812;26;20078;-85
2024/04/09 04:23:23;;;;;;;13.07;10.13;;;14.20;99.90;;;;;;5489229;26;20002;-85
2024/04/09 04:26:01;;;;;;;14.57;9.75;;;14.20;99.90;;;;;;5484519;26;19998;-85
2024/04/09 04:28:27;;;;;;;14.23;9.73;;;14.20;99.90;;;;;;5477194;26;20409;-85
2024/04/09 04:30:53;;;;;;;9.75;8.68;;;14.10;99.90;;;;;;5486046;26;20006;-85
2024/04/09 04:33:18;;;;;;;11.00;8.32;;;14.10;99.90;;;;;;5486629;26;19998;-85
2024/04/09 04:35:44;;;;;;;13.70;9.95;;;14.10;99.90;;;;;;5462306;26;20002;-85
2024/04/09 04:38:10;;;;;;;13.35;9.20;;;14.10;99.90;;;;;;5470476;26;20009;-85
2024/04/09 04:40:35;;;;;;;16.55;10.63;;;14.00;99.90;;;;;;5479851;26;19997;-85
2024/04/09 04:43:01;;;;;;;15.40;9.68;;;14.00;99.90;;;;;;5501870;26;20461;-87
2024/04/09 04:45:26;;;;;;;16.20;11.13;;;14.00;99.90;;;;;;5484263;26;20008;-86
2024/04/09 04:47:52;;;;;;;16.08;11.82;;;14.00;99.90;;;;;;5479946;26;19998;-86
2024/04/09 04:50:17;;;;;;;15.80;11.55;;;14.00;99.90;;;;;;5489902;26;19994;-86
2024/04/09 04:52:43;;;;;;;18.15;14.07;;;14.00;99.90;;;;;;5492480;26;20005;-86
2024/04/09 04:55:09;;;;;;;17.80;13.88;;;14.00;99.90;;;;;;5486120;26;19998;-87
2024/04/09 04:57:34;;;;;;;18.95;13.43;;;13.90;99.90;;;;;;5484100;26;20013;-86
2024/04/09 05:00:00;;;;;;;15.25;12.15;;;14.00;99.90;;;;;;5488914;26;20013;-86
2024/04/09 05:02:28;;;;;;;13.02;10.23;;;13.90;99.90;;;;;;5468285;26;19995;-84
2024/04/09 05:04:54;;;;;;;15.63;9.40;;;13.90;99.90;;;;;;5481790;26;20523;-84
2024/04/09 05:07:20;;;;;;;9.63;7.00;;;13.90;99.90;;;;;;5476864;26;20019;-83
2024/04/09 05:09:46;;;;;;;11.57;8.48;;;13.80;99.90;;;;;;5478020;26;19998;-84
2024/04/09 05:12:12;;;;;;;11.52;6.47;;;13.80;99.90;;;;;;5502444;26;20025;-84
2024/04/09 05:14:37;;;;;;;10.00;6.38;;;13.80;99.90;;;;;;5476587;26;20013;-84
2024/04/09 05:17:04;;;;;;;10.05;5.78;;;13.80;99.90;;;;;;5483974;26;20002;-83
2024/04/09 05:19:29;;;;;;;8.60;4.80;;;13.70;99.90;;;;;;5479879;26;20006;-83
2024/04/09 05:21:55;;;;;;;6.63;3.78;;;13.70;99.90;;;;;;5480420;26;20093;-84
2024/04/09 05:24:23;;;;;;;7.47;3.85;;;13.70;99.90;;;;;;5486563;26;20004;-85
2024/04/09 05:26:48;;;;;;;5.97;2.97;;;13.60;99.90;;;;;;5477161;26;20010;-84
2024/04/09 05:29:14;;;;;;;7.10;3.58;;;13.60;99.90;;;;;;5479412;26;20070;-84
2024/04/09 05:31:43;;;;;;;7.10;3.05;;;13.60;99.90;;;;;;5477069;26;20451;-84
2024/04/09 05:34:09;;;;;;;5.57;3.10;;;13.60;99.90;;;;;;5481332;26;20455;-84
2024/04/09 05:36:34;;;;;;;5.15;2.67;;;13.60;99.90;;;;;;5478634;26;20007;-84
2024/04/09 05:39:00;;;;;;;5.43;2.63;;;13.50;99.90;;;;;;5490127;26;20014;-84
2024/04/09 05:41:25;;;;;;;4.95;2.83;;;13.50;99.90;;;;;;5486026;26;20005;-84
2024/04/09 05:43:51;;;;;;;5.78;2.90;;;13.50;99.90;;;;;;5476146;26;20007;-84
2024/04/09 05:46:18;;;;;;;5.20;2.42;;;13.50;99.90;;;;;;5486814;26;19990;-83
2024/04/09 05:48:43;;;;;;;3.95;2.47;;;13.50;99.90;;;;;;5453190;26;20003;-84
2024/04/09 05:51:09;;;;;;;5.82;2.83;;;13.40;99.90;;;;;;5472618;26;20017;-85
2024/04/09 05:53:34;;;;;;;3.85;2.80;;;13.40;99.90;;;;;;5488424;26;20009;-84
2024/04/09 05:56:00;;;;;;;5.53;3.00;;;13.40;99.90;;;;;;5490295;26;20010;-85
2024/04/09 05:58:26;;;;;;;5.97;3.13;;;13.40;99.90;;;;;;5473518;26;20036;-85
2024/04/09 06:00:53;;;;;;;3.35;2.72;;;13.50;99.90;;;;;;5483755;26;19998;-83
2024/04/09 06:03:19;;;;;;;6.63;2.70;;;13.40;99.90;;;;;;5488312;26;20002;-84
2024/04/09 06:05:44;;;;;;;9.63;2.28;;;13.50;99.90;;;;;;5484717;26;20017;-84
2024/04/09 06:08:10;;;;;;;4.05;2.00;;;13.50;99.90;;;;;;5477179;26;20002;-84
2024/04/09 06:10:36;;;;;;;5.13;2.15;;;13.50;99.90;;;;;;5483364;26;20013;-83
2024/04/09 06:13:01;;;;;;;5.05;1.20;;;13.50;99.90;;;;;;5477790;26;20458;-84
2024/04/09 06:15:27;;;;;;;3.38;1.20;;;13.50;99.90;;;;;;5487021;26;20058;-85
2024/04/09 06:17:52;;;;;;;4.25;0.93;;;13.50;99.90;;;;;;5480733;26;19995;-84
2024/04/09 06:20:19;;;;;;;3.05;0.73;;;13.50;99.90;;;;;;5488495;26;20494;-85
2024/04/09 06:22:44;;;;;;;5.13;1.05;;;13.50;99.90;;;;;;5489243;26;20002;-85
2024/04/09 06:25:10;;;;;;;3.65;0.70;;;13.50;99.90;;;;;;5488022;26;20032;-85
2024/04/09 06:27:35;;;;;;;2.42;0.43;;;13.50;99.90;;;;;;5482286;26;20021;-85
2024/04/09 06:30:02;;;;;;;2.67;0.32;;;13.40;99.90;;;;;;5472275;26;20350;-84
2024/04/09 06:32:27;;;;;;;1.83;0.47;;;13.40;99.90;;;;;;5481509;26;19999;-85
2024/04/09 06:34:53;;;;;;;2.63;0.50;;;13.40;99.90;;;;;;5481053;26;20005;-84
2024/04/09 06:37:19;;;;;;;3.05;0.40;;;13.30;99.90;;;;;;5487427;26;20006;-84
2024/04/09 06:39:45;;;;;;;2.90;0.60;;;13.30;99.90;;;;;;5473763;26;20507;-84
2024/04/09 06:42:11;;;;;;;2.22;0.30;;;13.20;99.90;;;;;;5487001;26;20013;-84
2024/04/09 06:44:37;;;;;;;2.40;0.30;;;13.20;99.90;;;;;;5458451;26;20009;-83
2024/04/09 06:47:02;;;;;;;2.33;0.30;;;13.10;99.90;;;;;;5460084;26;20017;-84
2024/04/09 06:49:28;;;;;;;3.38;0.32;;;13.00;99.90;;;;;;5478319;26;20718;-85
2024/04/09 06:51:53;;;;;;;4.45;0.40;;;12.90;99.90;;;;;;5481796;26;20002;-84
2024/04/09 06:54:19;;;;;;;4.28;0.38;;;12.80;99.90;;;;;;5488416;26;20006;-84
2024/04/09 06:56:45;;;;;;;3.45;0.20;;;12.80;99.90;;;;;;5485260;26;20010;-85
2024/04/09 06:59:10;;;;;;;4.20;0.30;;;12.80;99.90;;;;;;5469656;26;20326;-84
2024/04/09 07:01:36;;;;;;;4.72;0.30;;;12.70;99.90;;;;;;5490152;26;20014;-84
2024/04/09 07:04:03;;;;;;;4.47;0.20;;;12.80;99.90;;;;;;5483717;26;19998;-85
2024/04/09 07:06:31;;;;;;;2.42;0.30;;;12.80;99.90;;;;;;5483821;26;20006;-84
2024/04/09 07:09:00;;;;;;;3.67;0.60;;;12.80;99.90;;;;;;5484504;26;19994;-84
2024/04/09 07:11:27;;;;;;;2.33;0.35;;;12.70;99.90;;;;;;5485710;26;19998;-83
2024/04/09 07:13:53;;;;;;;4.53;0.20;;;12.70;99.90;;;;;;5471962;26;20014;-84
2024/04/09 07:16:19;;;;;;;1.85;0.20;;;12.60;99.90;;;;;;5470029;26;19994;-84
2024/04/09 07:18:46;;;;;;;2.90;0.25;;;12.60;99.90;;;;;;5478159;26;20006;-83
2024/04/09 07:21:12;;;;;;;3.45;0.20;;;12.50;99.90;;;;;;5473306;26;19998;-84
2024/04/09 07:23:37;;;;;;;3.50;0.40;;;12.50;99.90;;;;;;5478576;26;19999;-84
2024/04/09 07:26:03;;;;;;;5.03;0.30;;;12.40;99.90;;;;;;5460653;26;19999;-85
2024/04/09 07:28:29;;;;;;;5.13;0.63;;;12.40;99.90;;;;;;5497687;26;20009;-85
2024/04/09 07:30:55;;;;;;;5.72;0.63;;;12.40;99.90;;;;;;5476371;26;20435;-84
2024/04/09 07:33:20;;;;;;;3.40;0.52;;;12.40;99.90;;;;;;5471398;26;20009;-85
2024/04/09 07:35:46;;;;;;;5.40;0.40;;;12.30;99.90;;;;;;5481459;26;19998;-85
2024/04/09 07:38:12;;;;;;;4.40;0.30;;;12.30;99.90;;;;;;5497128;26;19998;-85
2024/04/09 07:40:39;;;;;;;3.10;0.20;;;12.30;99.90;;;;;;5487609;26;20013;-84
2024/04/09 07:43:05;;;;;;;1.00;0.20;;;12.30;99.90;;;;;;5465526;26;20003;-85
2024/04/09 07:45:31;;;;;;;5.80;0.82;;;12.50;99.90;;;;;;5463630;26;20003;-85
2024/04/09 07:47:56;;;;;;;5.38;0.30;;;12.50;99.90;;;;;;5473455;26;20002;-84
2024/04/09 07:50:22;;;;;;;5.47;0.40;;;12.50;99.90;;;;;;5460177;26;20010;-85
2024/04/09 07:52:47;;;;;;;3.50;0.20;;;12.50;99.90;;;;;;5451833;26;19991;-85
2024/04/09 07:55:15;;;;;;;3.60;0.30;;;12.40;99.90;;;;;;5478094;26;20010;-85
2024/04/09 07:57:45;;;;;;;5.00;0.30;;;12.50;99.90;;;;;;5475187;26;20009;-86
2024/04/09 08:00:16;;;;;;;3.05;0.30;;;12.50;99.90;;;;;;5484594;26;20395;-87
2024/04/09 08:02:42;;;;;;;2.57;0.20;;;12.50;99.90;;;;;;5475044;26;19994;-86
2024/04/09 08:05:10;;;;;;;3.50;0.35;;;12.50;99.90;;;;;;5476990;26;20013;-86
2024/04/09 08:07:40;;;;;;;5.50;0.55;;;12.50;99.90;;;;;;5485932;26;20081;-86
2024/04/09 08:10:11;;;;;;;5.22;0.30;;;12.50;99.90;;;;;;5481303;26;20054;-86
2024/04/09 08:12:41;;;;;;;3.95;0.30;;;12.60;99.90;;;;;;5471993;26;20017;-86
2024/04/09 08:15:09;;;;;;;2.00;0.20;;;12.50;99.90;;;;;;5506455;25;20006;-86
2024/04/09 08:17:36;;;;;;;7.03;0.52;;;12.60;99.90;;;;;;5490269;26;20066;-86
2024/04/09 08:20:07;;;;;;;3.20;0.32;;;12.60;99.90;;;;;;5470722;26;20009;-85
2024/04/09 08:22:34;;;;;;;3.95;0.30;;;12.70;99.90;;;;;;5484762;26;20442;-86
2024/04/09 08:24:59;;;;;;;2.67;0.28;;;12.70;99.90;;;;;;5484323;26;19998;-86
2024/04/09 08:27:26;;;;;;;6.13;0.57;;;12.80;99.90;;;;;;5487619;26;20020;-85
2024/04/09 08:29:52;;;;;;;3.97;0.30;;;12.80;99.90;;;;;;5487210;26;20311;-85
2024/04/09 08:32:18;;;;;;;6.45;0.43;;;12.90;99.90;;;;;;5485012;26;20010;-86
2024/04/09 08:34:44;;;;;;;2.70;0.20;;;12.90;99.90;;;;;;5483725;26;20319;-85
2024/04/09 08:37:10;;;;;;;5.15;0.30;;;12.90;99.90;;;;;;5477605;26;20034;-86
2024/04/09 08:39:36;;;;;;;6.20;0.30;;;13.00;99.90;;;;;;5466243;26;20003;-86
2024/04/09 08:42:03;;;;;;;4.82;0.50;;;13.00;99.90;;;;;;5469043;26;19991;-86
2024/04/09 08:44:30;;;;;;;2.38;0.30;;;13.00;99.90;;;;;;5459149;26;19998;-85
2024/04/09 08:46:58;;;;;;;2.72;0.20;;;13.00;99.90;;;;;;5467279;26;20075;-86
2024/04/09 08:49:25;;;;;;;3.13;0.30;;;13.00;99.90;;;;;;5478590;26;19997;-86
2024/04/09 08:51:51;;;;;;;3.92;0.43;;;13.10;99.90;;;;;;5460876;26;20595;-85
2024/04/09 08:54:17;;;;;;;5.28;0.30;;;13.10;99.90;;;;;;5454625;26;19994;-86
2024/04/09 08:56:43;;;;;;;3.50;0.47;;;13.10;99.90;;;;;;5488626;26;20017;-86
2024/04/09 08:59:09;;;;;;;1.98;0.30;;;13.10;99.90;;;;;;5456769;26;20602;-85
2024/04/09 09:01:37;;;;;;;6.43;0.30;;;13.20;99.90;;;;;;5474939;26;20051;-86
2024/04/09 09:04:04;;;;;;;6.72;0.73;;;13.20;99.90;;;;;;5478810;26;19998;-86
2024/04/09 09:06:30;;;;;;;3.72;0.30;;;13.00;99.90;;;;;;5472008;26;20040;-86
2024/04/09 09:08:57;;;;;;;2.03;0.35;;;12.90;99.90;;;;;;5479221;26;20009;-85
2024/04/09 09:11:25;;;;;;;1.60;0.20;;;12.80;99.90;;;;;;5487360;26;20010;-85
2024/04/09 09:13:51;;;;;;;4.20;0.43;;;12.90;99.90;;;;;;5467773;26;20010;-85
2024/04/09 09:16:18;;;;;;;2.47;0.20;;;13.00;99.90;;;;;;5455585;26;20003;-85
2024/04/09 09:18:44;;;;;;;2.80;0.43;;;13.20;99.90;;;;;;5485045;26;20030;-85
2024/04/09 09:21:11;;;;;;;3.30;0.20;;;13.30;99.90;;;;;;5484821;26;19998;-85
2024/04/09 09:23:37;;;;;;;3.22;0.32;;;13.40;99.90;;;;;;5482414;26;20006;-86
2024/04/09 09:26:05;;;;;;;5.50;0.30;;;13.50;99.90;;;;;;5480276;26;20063;-86
2024/04/09 09:28:31;;;;;;;3.30;0.30;;;13.60;99.90;;;;;;5452392;26;20045;-86
2024/04/09 09:30:57;;;;;;;4.95;0.20;;;13.60;99.90;;;;;;5482317;26;20005;-86
2024/04/09 09:33:29;;;;;;;4.78;0.35;;;13.60;99.90;;;;;;5483692;26;20010;-85
2024/04/09 09:35:56;;;;;;;2.88;0.50;;;13.60;99.90;;;;;;5459557;26;20754;-86
2024/04/09 09:38:23;;;;;;;2.97;0.20;;;13.60;99.90;;;;;;5487499;26;19998;-86
2024/04/09 09:40:53;;;;;;;2.25;0.30;;;13.70;99.90;;;;;;5483742;26;20071;-87
2024/04/09 09:43:24;;;;;;;4.93;0.30;;;13.70;99.90;;;;;;5488168;26;20002;-86
2024/04/09 09:45:50;;;;;;;5.35;0.57;;;13.70;99.90;;;;;;5490033;26;20460;-87
2024/04/09 09:48:20;;;;;;;3.47;0.30;;;13.90;99.90;;;;;;5472367;26;20039;-86
2024/04/09 09:50:46;;;;;;;4.07;0.47;;;14.00;99.90;;;;;;5477238;26;20002;-86
2024/04/09 09:53:12;;;;;;;6.03;0.40;;;14.10;99.90;;;;;;5484616;26;19994;-86
2024/04/09 09:55:40;;;;;;;3.90;0.20;;;14.10;99.90;;;;;;5481025;26;20457;-87
2024/04/09 09:58:19;;;;;;;3.88;0.30;;;14.00;99.90;;;;;;5468052;26;19990;-87
2024/04/09 10:00:46;;;;;;;3.58;0.22;;;13.80;99.90;;;;;;5474925;26;19994;-87
2024/04/09 10:03:12;;;;;;;1.80;0.20;;;13.60;99.90;;;;;;5484653;26;20017;-87
2024/04/09 10:05:39;;;;;;;4.47;0.20;;;13.70;99.90;;;;;;5459349;26;19994;-86
2024/04/09 10:08:21;;;;;;;3.45;0.40;;;13.80;99.90;;;;;;5486540;26;20002;-86
2024/04/09 10:10:50;;;;;;;7.22;0.25;;;13.90;99.90;;;;;;5490215;26;20002;-87
2024/04/09 10:13:19;;;;;;;3.58;0.20;;;13.90;99.90;;;;;;5476086;26;19998;-87
2024/04/09 10:15:45;;;;;;;2.17;0.20;;;14.10;99.90;;;;;;5488665;26;20442;-87
2024/04/09 10:18:37;;;;;;;5.25;0.20;;;14.30;99.90;;;;;;5486677;26;19994;-86
2024/04/09 10:21:04;;;;;;;2.33;0.13;;;14.50;99.90;;;;;;5486112;26;19998;-86
2024/04/09 10:23:35;;;;;;;2.45;0.30;;;14.30;99.90;;;;;;5486515;26;20009;-87
2024/04/09 10:26:00;;;;;;;4.60;0.30;;;14.20;99.90;;;;;;5487886;26;19994;-87
2024/04/09 10:28:28;;;;;;;3.75;0.20;;;14.20;99.90;;;;;;5488835;26;20020;-87
2024/04/09 10:30:53;;;;;;;3.85;0.20;;;14.10;99.90;;;;;;5484755;26;20001;-86
2024/04/09 10:33:32;;;;;;;1.25;0.20;;;14.00;99.90;;;;;;5486415;26;20013;-86
2024/04/09 10:35:59;;;;;;;5.30;0.20;;;14.10;99.90;;;;;;5486688;26;19998;-87
2024/04/09 10:38:25;;;;;;;1.92;0.30;;;14.10;99.90;;;;;;5481564;26;20408;-87
2024/04/09 10:40:51;;;;;;;2.45;0.20;;;14.10;99.90;;;;;;5487939;26;19994;-87
2024/04/09 10:43:17;;;;;;;1.08;0.20;;;14.20;99.90;;;;;;5487520;26;20002;-84
2024/04/09 10:45:43;;;;;;;4.15;0.30;;;14.30;99.90;;;;;;5486744;26;20009;-87
2024/04/09 10:48:09;;;;;;;1.60;0.20;;;14.40;99.90;;;;;;5485114;26;20010;-87
2024/04/09 10:50:34;;;;;;;3.05;0.20;;;14.40;99.90;;;;;;5487650;26;20078;-87
2024/04/09 10:53:00;;;;;;;2.63;0.40;;;14.50;99.90;;;;;;5488743;26;20373;-86
2024/04/09 10:55:27;;;;;;;3.58;0.20;;;14.60;99.90;;;;;;5481056;26;19999;-87
2024/04/09 10:57:54;;;;;;;8.18;0.75;;;14.60;99.90;;;;;;5451223;26;20005;-87
2024/04/09 11:00:20;;;;;;;2.30;0.20;;;14.50;99.90;;;;;;5494829;26;20091;-87
2024/04/09 11:02:47;;;;;;;3.20;0.22;;;14.40;99.90;;;;;;5466161;26;19998;-87
2024/04/09 11:05:16;;;;;;;1.50;0.13;;;14.50;99.90;;;;;;5486900;26;20006;-87
2024/04/09 11:07:53;;;;;;;1.75;0.35;;;14.60;99.90;;;;;;5488415;26;20002;-87
2024/04/09 11:10:22;;;;;;;1.13;0.20;;;14.70;99.90;;;;;;5466211;26;19991;-87
2024/04/09 11:12:51;;;;;;;5.63;0.52;;;14.70;99.90;;;;;;5471486;26;20007;-87
2024/04/09 11:15:18;;;;;;;1.70;0.10;;;14.70;98.70;;;;;;5463287;26;19999;-87
2024/04/09 11:17:44;;;;;;;3.33;0.30;;;14.60;99.50;;;;;;5477850;26;20036;-86
2024/04/09 11:20:12;;;;;;;4.60;0.30;;;14.50;98.40;;;;;;5481849;26;20009;-87
2024/04/09 11:22:43;;;;;;;1.58;0.10;;;14.40;98.40;;;;;;5475624;26;20095;-86
2024/04/09 11:25:13;;;;;;;5.10;0.90;;;14.30;98.80;;;;;;5478827;26;19999;-87
2024/04/09 11:27:43;;;;;;;4.03;0.20;;;14.40;98.70;;;;;;5459729;26;20081;-87
2024/04/09 11:30:09;;;;;;;3.42;0.20;;;14.40;98.40;;;;;;5484888;26;20043;-87
2024/04/09 11:32:40;;;;;;;2.72;0.30;;;14.50;98.40;;;;;;5490649;26;20030;-87
2024/04/09 11:35:25;;;;;;;1.50;0.15;;;14.70;98.80;;;;;;5481906;26;20009;-87
2024/04/09 11:37:57;;;;;;;2.88;0.30;;;14.90;98.40;;;;;;5487651;26;20005;-86
2024/04/09 11:40:24;;;;;;;2.03;0.20;;;14.80;97.30;;;;;;5485003;26;20047;-87
2024/04/09 11:42:53;;;;;;;4.65;0.20;;;14.80;97.10;;;;;;5490620;26;19994;-87
2024/04/09 11:45:24;;;;;;;1.90;0.20;;;14.90;96.70;;;;;;5468099;26;19998;-88
2024/04/09 11:47:50;;;;;;;5.15;0.30;;;14.90;96.60;;;;;;5477404;26;19994;-86
2024/04/09 11:50:16;;;;;;;3.08;0.20;;;14.80;97.00;;;;;;5482808;26;20003;-87
2024/04/09 11:52:42;;;;;;;1.65;0.10;;;14.70;97.10;;;;;;5459874;26;19994;-87
2024/04/09 11:55:11;;;;;;;1.85;0.65;;;14.70;96.90;;;;;;5486189;26;20010;-86
2024/04/09 11:57:37;;;;;;;2.17;0.20;;;14.60;96.90;;;;;;5462994;26;20449;-87
2024/04/09 12:00:21;;;;;;;1.15;0.20;;;14.70;96.90;;;;;;5477947;26;20026;-85
2024/04/09 12:02:49;;;;;;;2.42;0.20;;;14.60;96.80;;;;;;5483996;26;20000;-86
2024/04/09 12:05:15;;;;;;;1.30;0.20;;;14.60;96.80;;;;;;5456349;26;19999;-87
2024/04/09 12:07:41;;;;;;;3.10;0.17;;;14.50;96.90;;;;;;5499118;26;20038;-87
2024/04/09 12:10:07;;;;;;;2.47;0.20;;;14.40;97.00;;;;;;5488678;26;19994;-87
2024/04/09 12:12:34;;;;;;;1.42;0.20;;;14.40;97.60;;;;;;5478813;26;20079;-86
2024/04/09 12:15:00;;;;;;;1.13;0.15;;;14.40;97.10;;;;;;5453674;26;20469;-86
2024/04/09 12:17:26;;;;;;;4.90;0.10;;;14.30;97.30;;;;;;5467306;26;19995;-86
2024/04/09 12:19:51;;;;;;;1.73;0.20;;;14.30;97.40;;;;;;5475751;26;20003;-86
2024/04/09 12:22:18;;;;;;;1.48;0.20;;;14.30;97.30;;;;;;5480967;26;19994;-86
2024/04/09 12:24:44;;;;;;;2.95;0.30;;;14.40;97.40;;;;;;5484352;26;20333;-86
2024/04/09 12:27:10;;;;;;;1.52;0.20;;;14.40;97.90;;;;;;5472329;26;20039;-86
2024/04/09 12:29:35;;;;;;;3.45;0.20;;;14.50;97.90;;;;;;5480556;26;19998;-85
2024/04/09 12:32:03;;;;;;;3.38;0.32;;;14.40;97.50;;;;;;5480533;26;19998;-86
2024/04/09 12:34:30;;;;;;;1.48;0.10;;;14.30;98.00;;;;;;5476043;26;20076;-86
2024/04/09 12:36:56;;;;;;;3.05;0.30;;;14.20;97.80;;;;;;5482697;26;20001;-85
2024/04/09 12:39:25;;;;;;;3.38;0.20;;;14.00;97.50;;;;;;5479583;26;20007;-86
2024/04/09 12:41:52;;;;;;;1.52;0.20;;;14.00;97.40;;;;;;5484345;26;20006;-85
2024/04/09 12:44:18;;;;;;;2.75;0.63;;;13.90;97.60;;;;;;5494282;26;19997;-86